sensor_id;sensor_type;location;lat;lon;timestamp;P1;durP1;ratioP1;P2;durP2;ratioP2
5456;SDS011;2751;49.802;9.944;2023-02-03T00:00:34;1.73;;;1.63;;
5456;SDS011;2751;49.802;9.944;2023-02-03T00:03:01;1.93;;;1.83;;
5456;SDS011;2751;49.802;9.944;2023-02-03T00:05:28;3.53;;;2.17;;
5456;SDS011;2751;49.802;9.944;2023-02-03T00:07:57;3.10;;;1.70;;
5456;SDS011;2751;49.802;9.944;2023-02-03T00:10:24;2.20;;;2.00;;
5456;SDS011;2751;49.802;9.944;2023-02-03T00:12:51;1.73;;;1.63;;
5456;SDS011;2751;49.802;9.944;2023-02-03T00:15:18;1.33;;;1.23;;
5456;SDS011;2751;49.802;9.944;2023-02-03T00:17:47;2.13;;;1.30;;
5456;SDS011;2751;49.802;9.944;2023-02-03T00:20:14;1.77;;;1.67;;
5456;SDS011;2751;49.802;9.944;2023-02-03T00:22:40;1.57;;;1.50;;
5456;SDS011;2751;49.802;9.944;2023-02-03T00:25:09;3.47;;;1.57;;
5456;SDS011;2751;49.802;9.944;2023-02-03T00:27:36;1.20;;;1.10;;
5456;SDS011;2751;49.802;9.944;2023-02-03T00:30:03;2.93;;;1.90;;
5456;SDS011;2751;49.802;9.944;2023-02-03T00:32:30;1.50;;;1.40;;
5456;SDS011;2751;49.802;9.944;2023-02-03T00:34:57;1.57;;;1.10;;
5456;SDS011;2751;49.802;9.944;2023-02-03T00:37:24;1.53;;;1.43;;
5456;SDS011;2751;49.802;9.944;2023-02-03T00:39:51;1.67;;;1.57;;
5456;SDS011;2751;49.802;9.944;2023-02-03T00:42:19;5.43;;;2.17;;
5456;SDS011;2751;49.802;9.944;2023-02-03T00:44:46;1.00;;;1.00;;
5456;SDS011;2751;49.802;9.944;2023-02-03T00:47:13;2.20;;;1.57;;
5456;SDS011;2751;49.802;9.944;2023-02-03T00:49:40;0.83;;;0.83;;
5456;SDS011;2751;49.802;9.944;2023-02-03T00:52:07;10.40;;;1.40;;
5456;SDS011;2751;49.802;9.944;2023-02-03T00:54:33;2.60;;;1.77;;
5456;SDS011;2751;49.802;9.944;2023-02-03T00:57:00;2.60;;;1.20;;
5456;SDS011;2751;49.802;9.944;2023-02-03T00:59:28;3.67;;;1.10;;
5456;SDS011;2751;49.802;9.944;2023-02-03T01:01:55;3.60;;;1.53;;
5456;SDS011;2751;49.802;9.944;2023-02-03T01:04:22;3.83;;;1.57;;
5456;SDS011;2751;49.802;9.944;2023-02-03T01:06:49;2.07;;;1.00;;
5456;SDS011;2751;49.802;9.944;2023-02-03T01:09:18;2.23;;;1.40;;
5456;SDS011;2751;49.802;9.944;2023-02-03T01:11:45;2.67;;;1.20;;
5456;SDS011;2751;49.802;9.944;2023-02-03T01:14:12;4.60;;;2.03;;
5456;SDS011;2751;49.802;9.944;2023-02-03T01:16:40;2.30;;;1.53;;
5456;SDS011;2751;49.802;9.944;2023-02-03T01:19:07;6.87;;;1.73;;
5456;SDS011;2751;49.802;9.944;2023-02-03T01:21:34;3.70;;;1.93;;
5456;SDS011;2751;49.802;9.944;2023-02-03T01:24:01;3.60;;;1.90;;
5456;SDS011;2751;49.802;9.944;2023-02-03T01:26:28;3.00;;;1.67;;
5456;SDS011;2751;49.802;9.944;2023-02-03T01:28:55;1.70;;;1.60;;
5456;SDS011;2751;49.802;9.944;2023-02-03T01:31:25;4.13;;;2.00;;
5456;SDS011;2751;49.802;9.944;2023-02-03T01:33:54;3.10;;;1.80;;
5456;SDS011;2751;49.802;9.944;2023-02-03T01:36:23;1.90;;;1.80;;
5456;SDS011;2751;49.802;9.944;2023-02-03T01:38:54;3.30;;;2.00;;
5456;SDS011;2751;49.802;9.944;2023-02-03T01:41:22;4.90;;;2.53;;
5456;SDS011;2751;49.802;9.944;2023-02-03T01:43:51;2.93;;;2.07;;
5456;SDS011;2751;49.802;9.944;2023-02-03T01:46:27;2.23;;;1.83;;
5456;SDS011;2751;49.802;9.944;2023-02-03T01:49:00;2.10;;;1.83;;
5456;SDS011;2751;49.802;9.944;2023-02-03T01:51:32;3.50;;;1.27;;
5456;SDS011;2751;49.802;9.944;2023-02-03T01:53:59;2.70;;;2.10;;
5456;SDS011;2751;49.802;9.944;2023-02-03T01:56:28;5.83;;;2.33;;
5456;SDS011;2751;49.802;9.944;2023-02-03T01:59:00;1.70;;;1.60;;
5456;SDS011;2751;49.802;9.944;2023-02-03T02:01:27;2.53;;;1.90;;
5456;SDS011;2751;49.802;9.944;2023-02-03T02:03:55;3.73;;;1.43;;
5456;SDS011;2751;49.802;9.944;2023-02-03T02:06:26;2.70;;;1.53;;
5456;SDS011;2751;49.802;9.944;2023-02-03T02:08:53;3.17;;;2.70;;
5456;SDS011;2751;49.802;9.944;2023-02-03T02:11:23;3.10;;;2.80;;
5456;SDS011;2751;49.802;9.944;2023-02-03T02:13:50;4.37;;;1.90;;
5456;SDS011;2751;49.802;9.944;2023-02-03T02:16:21;6.13;;;2.50;;
5456;SDS011;2751;49.802;9.944;2023-02-03T02:18:58;3.40;;;2.37;;
5456;SDS011;2751;49.802;9.944;2023-02-03T02:21:41;4.37;;;1.70;;
5456;SDS011;2751;49.802;9.944;2023-02-03T02:27:25;2.33;;;2.10;;
5456;SDS011;2751;49.802;9.944;2023-02-03T02:30:14;2.40;;;2.13;;
5456;SDS011;2751;49.802;9.944;2023-02-03T02:33:00;4.63;;;2.57;;
5456;SDS011;2751;49.802;9.944;2023-02-03T02:35:38;3.63;;;2.50;;
5456;SDS011;2751;49.802;9.944;2023-02-03T02:38:14;4.97;;;2.80;;
5456;SDS011;2751;49.802;9.944;2023-02-03T02:40:49;2.70;;;2.17;;
5456;SDS011;2751;49.802;9.944;2023-02-03T02:43:22;2.23;;;1.73;;
5456;SDS011;2751;49.802;9.944;2023-02-03T02:45:55;2.80;;;2.37;;
5456;SDS011;2751;49.802;9.944;2023-02-03T02:48:28;3.33;;;3.03;;
5456;SDS011;2751;49.802;9.944;2023-02-03T02:50:58;2.83;;;2.50;;
5456;SDS011;2751;49.802;9.944;2023-02-03T02:53:30;2.27;;;1.70;;
5456;SDS011;2751;49.802;9.944;2023-02-03T02:56:00;2.63;;;2.17;;
5456;SDS011;2751;49.802;9.944;2023-02-03T02:58:30;2.77;;;1.97;;
5456;SDS011;2751;49.802;9.944;2023-02-03T03:01:00;2.40;;;1.90;;
5456;SDS011;2751;49.802;9.944;2023-02-03T03:03:29;6.27;;;2.37;;
5456;SDS011;2751;49.802;9.944;2023-02-03T03:05:56;2.90;;;2.10;;
5456;SDS011;2751;49.802;9.944;2023-02-03T03:08:27;2.50;;;1.90;;
5456;SDS011;2751;49.802;9.944;2023-02-03T03:11:00;1.20;;;1.20;;
5456;SDS011;2751;49.802;9.944;2023-02-03T03:13:28;1.10;;;1.00;;
5456;SDS011;2751;49.802;9.944;2023-02-03T03:15:57;3.40;;;2.30;;
5456;SDS011;2751;49.802;9.944;2023-02-03T03:18:27;4.03;;;2.20;;
5456;SDS011;2751;49.802;9.944;2023-02-03T03:21:00;2.03;;;1.80;;
5456;SDS011;2751;49.802;9.944;2023-02-03T03:23:31;5.77;;;1.73;;
5456;SDS011;2751;49.802;9.944;2023-02-03T03:26:03;4.03;;;2.47;;
5456;SDS011;2751;49.802;9.944;2023-02-03T03:28:40;1.57;;;1.37;;
5456;SDS011;2751;49.802;9.944;2023-02-03T03:31:12;2.80;;;1.67;;
5456;SDS011;2751;49.802;9.944;2023-02-03T03:33:40;2.20;;;1.40;;
5456;SDS011;2751;49.802;9.944;2023-02-03T03:36:10;1.90;;;1.80;;
5456;SDS011;2751;49.802;9.944;2023-02-03T03:38:43;2.50;;;1.40;;
5456;SDS011;2751;49.802;9.944;2023-02-03T03:41:17;1.77;;;1.20;;
5456;SDS011;2751;49.802;9.944;2023-02-03T03:43:49;3.20;;;1.20;;
5456;SDS011;2751;49.802;9.944;2023-02-03T03:46:19;1.50;;;1.17;;
5456;SDS011;2751;49.802;9.944;2023-02-03T03:48:53;0.90;;;0.80;;
5456;SDS011;2751;49.802;9.944;2023-02-03T03:51:22;1.57;;;1.47;;
5456;SDS011;2751;49.802;9.944;2023-02-03T03:53:54;1.07;;;1.07;;
5456;SDS011;2751;49.802;9.944;2023-02-03T03:56:24;1.40;;;1.37;;
5456;SDS011;2751;49.802;9.944;2023-02-03T03:58:55;2.73;;;1.30;;
5456;SDS011;2751;49.802;9.944;2023-02-03T04:01:24;1.27;;;1.17;;
5456;SDS011;2751;49.802;9.944;2023-02-03T04:03:54;1.70;;;1.13;;
5456;SDS011;2751;49.802;9.944;2023-02-03T04:06:23;0.90;;;0.87;;
5456;SDS011;2751;49.802;9.944;2023-02-03T04:08:50;1.10;;;1.00;;
5456;SDS011;2751;49.802;9.944;2023-02-03T04:11:17;0.90;;;0.90;;
5456;SDS011;2751;49.802;9.944;2023-02-03T04:13:58;1.97;;;1.87;;
5456;SDS011;2751;49.802;9.944;2023-02-03T04:16:25;1.30;;;1.20;;
5456;SDS011;2751;49.802;9.944;2023-02-03T04:18:51;2.13;;;1.20;;
5456;SDS011;2751;49.802;9.944;2023-02-03T04:21:20;1.10;;;1.00;;
5456;SDS011;2751;49.802;9.944;2023-02-03T04:23:47;4.17;;;1.60;;
5456;SDS011;2751;49.802;9.944;2023-02-03T04:26:15;1.30;;;1.20;;
5456;SDS011;2751;49.802;9.944;2023-02-03T04:28:42;1.20;;;1.13;;
5456;SDS011;2751;49.802;9.944;2023-02-03T04:31:09;1.33;;;1.23;;
5456;SDS011;2751;49.802;9.944;2023-02-03T04:33:36;0.57;;;0.57;;
5456;SDS011;2751;49.802;9.944;2023-02-03T04:36:04;2.00;;;1.03;;
5456;SDS011;2751;49.802;9.944;2023-02-03T04:38:32;0.77;;;0.77;;
5456;SDS011;2751;49.802;9.944;2023-02-03T04:40:59;1.57;;;0.97;;
5456;SDS011;2751;49.802;9.944;2023-02-03T04:43:26;0.93;;;0.93;;
5456;SDS011;2751;49.802;9.944;2023-02-03T04:45:52;1.40;;;1.30;;
5456;SDS011;2751;49.802;9.944;2023-02-03T04:48:20;1.10;;;1.10;;
5456;SDS011;2751;49.802;9.944;2023-02-03T04:50:47;1.37;;;0.97;;
5456;SDS011;2751;49.802;9.944;2023-02-03T04:53:15;0.90;;;0.90;;
5456;SDS011;2751;49.802;9.944;2023-02-03T04:55:44;0.97;;;0.87;;
5456;SDS011;2751;49.802;9.944;2023-02-03T04:58:12;0.83;;;0.83;;
5456;SDS011;2751;49.802;9.944;2023-02-03T05:00:39;1.20;;;1.10;;
5456;SDS011;2751;49.802;9.944;2023-02-03T05:03:06;1.73;;;1.20;;
5456;SDS011;2751;49.802;9.944;2023-02-03T05:05:33;2.50;;;1.40;;
5456;SDS011;2751;49.802;9.944;2023-02-03T05:08:00;0.83;;;0.83;;
5456;SDS011;2751;49.802;9.944;2023-02-03T05:10:28;1.47;;;0.90;;
5456;SDS011;2751;49.802;9.944;2023-02-03T05:12:55;3.63;;;1.20;;
5456;SDS011;2751;49.802;9.944;2023-02-03T05:15:22;1.27;;;0.97;;
5456;SDS011;2751;49.802;9.944;2023-02-03T05:17:50;0.50;;;0.50;;
5456;SDS011;2751;49.802;9.944;2023-02-03T05:20:17;0.80;;;0.80;;
5456;SDS011;2751;49.802;9.944;2023-02-03T05:22:45;0.80;;;0.80;;
5456;SDS011;2751;49.802;9.944;2023-02-03T05:25:12;2.50;;;1.03;;
5456;SDS011;2751;49.802;9.944;2023-02-03T05:27:41;0.93;;;0.93;;
5456;SDS011;2751;49.802;9.944;2023-02-03T05:30:08;1.13;;;1.00;;
5456;SDS011;2751;49.802;9.944;2023-02-03T05:32:36;1.10;;;1.00;;
5456;SDS011;2751;49.802;9.944;2023-02-03T05:35:03;1.40;;;1.30;;
5456;SDS011;2751;49.802;9.944;2023-02-03T05:37:30;0.90;;;0.90;;
5456;SDS011;2751;49.802;9.944;2023-02-03T05:39:57;1.53;;;1.43;;
5456;SDS011;2751;49.802;9.944;2023-02-03T05:42:48;1.30;;;1.20;;
5456;SDS011;2751;49.802;9.944;2023-02-03T05:45:14;1.20;;;1.20;;
5456;SDS011;2751;49.802;9.944;2023-02-03T05:47:41;1.00;;;1.00;;
5456;SDS011;2751;49.802;9.944;2023-02-03T05:50:08;2.33;;;1.37;;
5456;SDS011;2751;49.802;9.944;2023-02-03T05:52:35;1.63;;;1.13;;
5456;SDS011;2751;49.802;9.944;2023-02-03T05:55:02;1.00;;;1.00;;
5456;SDS011;2751;49.802;9.944;2023-02-03T05:57:29;1.57;;;1.23;;
5456;SDS011;2751;49.802;9.944;2023-02-03T05:59:57;1.10;;;1.10;;
5456;SDS011;2751;49.802;9.944;2023-02-03T06:02:24;1.10;;;1.10;;
5456;SDS011;2751;49.802;9.944;2023-02-03T06:04:53;2.27;;;1.20;;
5456;SDS011;2751;49.802;9.944;2023-02-03T06:07:20;1.47;;;1.00;;
5456;SDS011;2751;49.802;9.944;2023-02-03T06:09:47;1.23;;;1.23;;
5456;SDS011;2751;49.802;9.944;2023-02-03T06:12:14;0.90;;;0.90;;
5456;SDS011;2751;49.802;9.944;2023-02-03T06:14:41;1.30;;;1.20;;
5456;SDS011;2751;49.802;9.944;2023-02-03T06:17:09;1.20;;;1.20;;
5456;SDS011;2751;49.802;9.944;2023-02-03T06:19:36;2.43;;;1.23;;
5456;SDS011;2751;49.802;9.944;2023-02-03T06:22:02;1.73;;;0.93;;
5456;SDS011;2751;49.802;9.944;2023-02-03T06:24:29;5.60;;;2.10;;
5456;SDS011;2751;49.802;9.944;2023-02-03T06:26:56;1.63;;;1.10;;
5456;SDS011;2751;49.802;9.944;2023-02-03T06:29:23;1.50;;;1.40;;
5456;SDS011;2751;49.802;9.944;2023-02-03T06:31:50;1.00;;;0.83;;
5456;SDS011;2751;49.802;9.944;2023-02-03T06:34:18;0.83;;;0.83;;
5456;SDS011;2751;49.802;9.944;2023-02-03T06:36:45;2.10;;;1.37;;
5456;SDS011;2751;49.802;9.944;2023-02-03T06:39:12;1.00;;;1.00;;
5456;SDS011;2751;49.802;9.944;2023-02-03T06:41:39;1.00;;;0.80;;
5456;SDS011;2751;49.802;9.944;2023-02-03T06:44:06;1.47;;;0.90;;
5456;SDS011;2751;49.802;9.944;2023-02-03T06:46:33;0.97;;;0.90;;
5456;SDS011;2751;49.802;9.944;2023-02-03T06:49:00;0.87;;;0.87;;
5456;SDS011;2751;49.802;9.944;2023-02-03T06:51:28;0.80;;;0.80;;
5456;SDS011;2751;49.802;9.944;2023-02-03T06:53:55;0.70;;;0.70;;
5456;SDS011;2751;49.802;9.944;2023-02-03T06:56:23;1.23;;;1.23;;
5456;SDS011;2751;49.802;9.944;2023-02-03T06:58:50;2.10;;;1.00;;
5456;SDS011;2751;49.802;9.944;2023-02-03T07:01:18;1.73;;;1.50;;
5456;SDS011;2751;49.802;9.944;2023-02-03T07:03:45;0.87;;;0.80;;
5456;SDS011;2751;49.802;9.944;2023-02-03T07:06:12;1.10;;;1.00;;
5456;SDS011;2751;49.802;9.944;2023-02-03T07:08:40;1.10;;;1.10;;
5456;SDS011;2751;49.802;9.944;2023-02-03T07:11:07;0.87;;;0.87;;
5456;SDS011;2751;49.802;9.944;2023-02-03T07:13:34;0.70;;;0.70;;
5456;SDS011;2751;49.802;9.944;2023-02-03T07:16:01;5.30;;;0.87;;
5456;SDS011;2751;49.802;9.944;2023-02-03T07:18:28;2.70;;;1.20;;
5456;SDS011;2751;49.802;9.944;2023-02-03T07:20:55;0.93;;;0.83;;
5456;SDS011;2751;49.802;9.944;2023-02-03T07:23:22;0.70;;;0.70;;
5456;SDS011;2751;49.802;9.944;2023-02-03T07:25:51;2.10;;;1.20;;
5456;SDS011;2751;49.802;9.944;2023-02-03T07:28:17;1.07;;;0.87;;
5456;SDS011;2751;49.802;9.944;2023-02-03T07:30:46;1.17;;;1.00;;
5456;SDS011;2751;49.802;9.944;2023-02-03T07:33:14;0.70;;;0.60;;
5456;SDS011;2751;49.802;9.944;2023-02-03T07:35:40;1.57;;;0.70;;
5456;SDS011;2751;49.802;9.944;2023-02-03T07:38:07;1.33;;;1.10;;
5456;SDS011;2751;49.802;9.944;2023-02-03T07:40:34;1.37;;;0.90;;
5456;SDS011;2751;49.802;9.944;2023-02-03T07:43:02;1.70;;;1.17;;
5456;SDS011;2751;49.802;9.944;2023-02-03T07:45:29;0.60;;;0.60;;
5456;SDS011;2751;49.802;9.944;2023-02-03T07:47:56;0.90;;;0.90;;
5456;SDS011;2751;49.802;9.944;2023-02-03T07:50:23;0.83;;;0.83;;
5456;SDS011;2751;49.802;9.944;2023-02-03T07:52:50;1.20;;;0.90;;
5456;SDS011;2751;49.802;9.944;2023-02-03T07:55:17;1.10;;;1.00;;
5456;SDS011;2751;49.802;9.944;2023-02-03T07:57:44;1.10;;;1.00;;
5456;SDS011;2751;49.802;9.944;2023-02-03T08:00:13;2.40;;;1.60;;
5456;SDS011;2751;49.802;9.944;2023-02-03T08:02:41;1.30;;;0.93;;
5456;SDS011;2751;49.802;9.944;2023-02-03T08:05:09;3.07;;;1.60;;
5456;SDS011;2751;49.802;9.944;2023-02-03T08:07:37;3.47;;;1.20;;
5456;SDS011;2751;49.802;9.944;2023-02-03T08:10:04;1.03;;;1.03;;
5456;SDS011;2751;49.802;9.944;2023-02-03T08:12:32;1.37;;;1.27;;
5456;SDS011;2751;49.802;9.944;2023-02-03T08:14:59;1.47;;;1.27;;
5456;SDS011;2751;49.802;9.944;2023-02-03T08:17:27;1.83;;;1.20;;
5456;SDS011;2751;49.802;9.944;2023-02-03T08:19:54;2.50;;;1.57;;
5456;SDS011;2751;49.802;9.944;2023-02-03T08:22:25;6.33;;;1.43;;
5456;SDS011;2751;49.802;9.944;2023-02-03T08:24:52;1.17;;;1.17;;
5456;SDS011;2751;49.802;9.944;2023-02-03T08:27:20;1.30;;;1.20;;
5456;SDS011;2751;49.802;9.944;2023-02-03T08:29:48;1.97;;;1.40;;
5456;SDS011;2751;49.802;9.944;2023-02-03T08:32:15;1.53;;;1.33;;
5456;SDS011;2751;49.802;9.944;2023-02-03T08:34:46;0.87;;;0.83;;
5456;SDS011;2751;49.802;9.944;2023-02-03T08:37:14;1.33;;;1.17;;
5456;SDS011;2751;49.802;9.944;2023-02-03T08:39:43;2.03;;;1.30;;
5456;SDS011;2751;49.802;9.944;2023-02-03T08:42:10;2.30;;;1.20;;
5456;SDS011;2751;49.802;9.944;2023-02-03T08:44:36;1.63;;;1.23;;
5456;SDS011;2751;49.802;9.944;2023-02-03T08:47:04;1.20;;;1.10;;
5456;SDS011;2751;49.802;9.944;2023-02-03T08:49:31;2.90;;;1.10;;
5456;SDS011;2751;49.802;9.944;2023-02-03T08:52:01;1.23;;;1.20;;
5456;SDS011;2751;49.802;9.944;2023-02-03T08:54:28;0.60;;;0.60;;
5456;SDS011;2751;49.802;9.944;2023-02-03T08:56:54;0.70;;;0.70;;
5456;SDS011;2751;49.802;9.944;2023-02-03T08:59:21;2.10;;;1.47;;
5456;SDS011;2751;49.802;9.944;2023-02-03T09:01:48;0.80;;;0.80;;
5456;SDS011;2751;49.802;9.944;2023-02-03T09:04:17;1.30;;;1.20;;
5456;SDS011;2751;49.802;9.944;2023-02-03T09:06:48;1.40;;;1.30;;
5456;SDS011;2751;49.802;9.944;2023-02-03T09:09:17;1.63;;;1.20;;
5456;SDS011;2751;49.802;9.944;2023-02-03T09:11:44;1.63;;;1.00;;
5456;SDS011;2751;49.802;9.944;2023-02-03T09:14:10;0.87;;;0.67;;
5456;SDS011;2751;49.802;9.944;2023-02-03T09:16:37;3.50;;;1.00;;
5456;SDS011;2751;49.802;9.944;2023-02-03T09:19:04;2.03;;;1.07;;
5456;SDS011;2751;49.802;9.944;2023-02-03T09:21:31;2.10;;;0.83;;
5456;SDS011;2751;49.802;9.944;2023-02-03T09:23:59;1.20;;;1.07;;
5456;SDS011;2751;49.802;9.944;2023-02-03T09:26:27;0.97;;;0.80;;
5456;SDS011;2751;49.802;9.944;2023-02-03T09:28:55;1.23;;;1.00;;
5456;SDS011;2751;49.802;9.944;2023-02-03T09:31:22;1.33;;;0.80;;
5456;SDS011;2751;49.802;9.944;2023-02-03T09:33:48;0.87;;;0.80;;
5456;SDS011;2751;49.802;9.944;2023-02-03T09:36:15;1.37;;;1.20;;
5456;SDS011;2751;49.802;9.944;2023-02-03T09:38:42;2.00;;;1.30;;
5456;SDS011;2751;49.802;9.944;2023-02-03T09:41:12;1.90;;;1.47;;
5456;SDS011;2751;49.802;9.944;2023-02-03T09:43:50;0.87;;;0.83;;
5456;SDS011;2751;49.802;9.944;2023-02-03T09:46:22;1.43;;;0.83;;
5456;SDS011;2751;49.802;9.944;2023-02-03T09:48:53;1.23;;;1.03;;
5456;SDS011;2751;49.802;9.944;2023-02-03T09:51:23;0.80;;;0.80;;
5456;SDS011;2751;49.802;9.944;2023-02-03T09:53:54;0.77;;;0.77;;
5456;SDS011;2751;49.802;9.944;2023-02-03T09:56:27;1.33;;;0.73;;
5456;SDS011;2751;49.802;9.944;2023-02-03T09:58:58;0.97;;;0.87;;
5456;SDS011;2751;49.802;9.944;2023-02-03T10:01:27;1.70;;;1.10;;
5456;SDS011;2751;49.802;9.944;2023-02-03T10:04:09;0.83;;;0.80;;
5456;SDS011;2751;49.802;9.944;2023-02-03T10:06:48;1.30;;;0.97;;
5456;SDS011;2751;49.802;9.944;2023-02-03T10:09:29;2.70;;;1.30;;
5456;SDS011;2751;49.802;9.944;2023-02-03T10:12:13;0.60;;;0.60;;
5456;SDS011;2751;49.802;9.944;2023-02-03T10:14:55;0.80;;;0.80;;
5456;SDS011;2751;49.802;9.944;2023-02-03T10:17:32;1.53;;;1.10;;
5456;SDS011;2751;49.802;9.944;2023-02-03T10:20:05;0.70;;;0.70;;
5456;SDS011;2751;49.802;9.944;2023-02-03T10:22:39;1.00;;;0.90;;
5456;SDS011;2751;49.802;9.944;2023-02-03T10:25:14;1.00;;;1.00;;
5456;SDS011;2751;49.802;9.944;2023-02-03T10:27:48;0.97;;;0.97;;
5456;SDS011;2751;49.802;9.944;2023-02-03T10:30:20;1.03;;;0.80;;
5456;SDS011;2751;49.802;9.944;2023-02-03T10:32:48;1.23;;;1.13;;
5456;SDS011;2751;49.802;9.944;2023-02-03T10:35:19;3.27;;;1.13;;
5456;SDS011;2751;49.802;9.944;2023-02-03T10:37:50;0.73;;;0.73;;
5456;SDS011;2751;49.802;9.944;2023-02-03T10:40:22;0.63;;;0.63;;
5456;SDS011;2751;49.802;9.944;2023-02-03T10:42:53;2.00;;;0.70;;
5456;SDS011;2751;49.802;9.944;2023-02-03T10:45:39;2.20;;;1.20;;
5456;SDS011;2751;49.802;9.944;2023-02-03T10:48:09;0.60;;;0.60;;
5456;SDS011;2751;49.802;9.944;2023-02-03T10:50:41;0.80;;;0.80;;
5456;SDS011;2751;49.802;9.944;2023-02-03T10:53:19;1.77;;;0.80;;
5456;SDS011;2751;49.802;9.944;2023-02-03T10:55:50;2.60;;;0.97;;
5456;SDS011;2751;49.802;9.944;2023-02-03T10:58:26;1.40;;;1.00;;
5456;SDS011;2751;49.802;9.944;2023-02-03T11:00:56;1.33;;;1.07;;
5456;SDS011;2751;49.802;9.944;2023-02-03T11:03:30;0.97;;;0.90;;
5456;SDS011;2751;49.802;9.944;2023-02-03T11:06:07;1.57;;;1.10;;
5456;SDS011;2751;49.802;9.944;2023-02-03T11:08:37;2.87;;;0.70;;
5456;SDS011;2751;49.802;9.944;2023-02-03T11:11:06;1.03;;;0.97;;
5456;SDS011;2751;49.802;9.944;2023-02-03T11:13:34;0.97;;;0.93;;
5456;SDS011;2751;49.802;9.944;2023-02-03T11:16:03;1.70;;;0.90;;
5456;SDS011;2751;49.802;9.944;2023-02-03T11:18:35;3.57;;;0.90;;
5456;SDS011;2751;49.802;9.944;2023-02-03T11:21:16;1.20;;;0.77;;
5456;SDS011;2751;49.802;9.944;2023-02-03T11:23:47;0.93;;;0.93;;
5456;SDS011;2751;49.802;9.944;2023-02-03T11:26:19;0.83;;;0.83;;
5456;SDS011;2751;49.802;9.944;2023-02-03T11:28:50;2.40;;;1.20;;
5456;SDS011;2751;49.802;9.944;2023-02-03T11:31:22;1.70;;;0.97;;
5456;SDS011;2751;49.802;9.944;2023-02-03T11:33:52;3.63;;;1.20;;
5456;SDS011;2751;49.802;9.944;2023-02-03T11:36:23;1.53;;;1.03;;
5456;SDS011;2751;49.802;9.944;2023-02-03T11:38:52;2.53;;;0.93;;
5456;SDS011;2751;49.802;9.944;2023-02-03T11:41:44;2.40;;;0.90;;
5456;SDS011;2751;49.802;9.944;2023-02-03T11:44:15;1.77;;;0.70;;
5456;SDS011;2751;49.802;9.944;2023-02-03T11:46:47;0.67;;;0.67;;
5456;SDS011;2751;49.802;9.944;2023-02-03T11:49:28;0.87;;;0.87;;
5456;SDS011;2751;49.802;9.944;2023-02-03T11:52:23;0.80;;;0.80;;
5456;SDS011;2751;49.802;9.944;2023-02-03T11:55:25;0.70;;;0.70;;
5456;SDS011;2751;49.802;9.944;2023-02-03T11:58:21;0.80;;;0.80;;
5456;SDS011;2751;49.802;9.944;2023-02-03T12:01:12;0.83;;;0.70;;
5456;SDS011;2751;49.802;9.944;2023-02-03T12:03:54;1.00;;;0.90;;
5456;SDS011;2751;49.802;9.944;2023-02-03T12:06:45;0.70;;;0.70;;
5456;SDS011;2751;49.802;9.944;2023-02-03T12:09:39;1.40;;;0.80;;
5456;SDS011;2751;49.802;9.944;2023-02-03T12:12:22;0.73;;;0.57;;
5456;SDS011;2751;49.802;9.944;2023-02-03T12:15:00;0.93;;;0.70;;
5456;SDS011;2751;49.802;9.944;2023-02-03T12:17:47;0.97;;;0.90;;
5456;SDS011;2751;49.802;9.944;2023-02-03T12:20:33;0.50;;;0.50;;
5456;SDS011;2751;49.802;9.944;2023-02-03T12:23:12;0.90;;;0.60;;
5456;SDS011;2751;49.802;9.944;2023-02-03T12:25:52;1.37;;;0.60;;
5456;SDS011;2751;49.802;9.944;2023-02-03T12:28:35;0.63;;;0.63;;
5456;SDS011;2751;49.802;9.944;2023-02-03T12:31:17;0.80;;;0.60;;
5456;SDS011;2751;49.802;9.944;2023-02-03T12:33:51;0.57;;;0.50;;
5456;SDS011;2751;49.802;9.944;2023-02-03T12:36:25;0.50;;;0.50;;
5456;SDS011;2751;49.802;9.944;2023-02-03T12:38:57;0.40;;;0.40;;
5456;SDS011;2751;49.802;9.944;2023-02-03T12:41:29;0.50;;;0.50;;
5456;SDS011;2751;49.802;9.944;2023-02-03T12:44:01;0.50;;;0.50;;
5456;SDS011;2751;49.802;9.944;2023-02-03T12:46:34;2.20;;;0.70;;
5456;SDS011;2751;49.802;9.944;2023-02-03T12:49:09;0.70;;;0.50;;
5456;SDS011;2751;49.802;9.944;2023-02-03T12:51:44;0.60;;;0.60;;
5456;SDS011;2751;49.802;9.944;2023-02-03T12:54:21;0.50;;;0.50;;
5456;SDS011;2751;49.802;9.944;2023-02-03T12:56:57;1.00;;;0.70;;
5456;SDS011;2751;49.802;9.944;2023-02-03T12:59:33;0.63;;;0.63;;
5456;SDS011;2751;49.802;9.944;2023-02-03T13:02:03;0.50;;;0.50;;
5456;SDS011;2751;49.802;9.944;2023-02-03T13:04:42;0.50;;;0.50;;
5456;SDS011;2751;49.802;9.944;2023-02-03T13:07:15;0.60;;;0.60;;
5456;SDS011;2751;49.802;9.944;2023-02-03T13:09:48;0.40;;;0.40;;
5456;SDS011;2751;49.802;9.944;2023-02-03T13:12:24;0.47;;;0.47;;
5456;SDS011;2751;49.802;9.944;2023-02-03T13:14:56;0.40;;;0.40;;
5456;SDS011;2751;49.802;9.944;2023-02-03T13:17:30;0.60;;;0.60;;
5456;SDS011;2751;49.802;9.944;2023-02-03T13:20:04;0.70;;;0.50;;
5456;SDS011;2751;49.802;9.944;2023-02-03T13:22:42;0.50;;;0.50;;
5456;SDS011;2751;49.802;9.944;2023-02-03T13:25:13;0.70;;;0.70;;
5456;SDS011;2751;49.802;9.944;2023-02-03T13:27:47;0.60;;;0.60;;
5456;SDS011;2751;49.802;9.944;2023-02-03T13:30:20;0.63;;;0.40;;
5456;SDS011;2751;49.802;9.944;2023-02-03T13:36:06;1.93;;;0.43;;
5456;SDS011;2751;49.802;9.944;2023-02-03T13:39:00;0.40;;;0.30;;
5456;SDS011;2751;49.802;9.944;2023-02-03T13:41:41;0.43;;;0.43;;
5456;SDS011;2751;49.802;9.944;2023-02-03T13:44:14;0.40;;;0.40;;
5456;SDS011;2751;49.802;9.944;2023-02-03T13:46:46;0.67;;;0.63;;
5456;SDS011;2751;49.802;9.944;2023-02-03T13:49:17;0.83;;;0.60;;
5456;SDS011;2751;49.802;9.944;2023-02-03T13:51:49;0.90;;;0.50;;
5456;SDS011;2751;49.802;9.944;2023-02-03T13:54:20;2.20;;;0.60;;
5456;SDS011;2751;49.802;9.944;2023-02-03T13:56:54;0.60;;;0.60;;
5456;SDS011;2751;49.802;9.944;2023-02-03T13:59:27;3.67;;;0.67;;
5456;SDS011;2751;49.802;9.944;2023-02-03T14:23:47;0.50;;;0.50;;
5456;SDS011;2751;49.802;9.944;2023-02-03T14:26:36;2.73;;;0.40;;
5456;SDS011;2751;49.802;9.944;2023-02-03T14:29:08;0.63;;;0.63;;
5456;SDS011;2751;49.802;9.944;2023-02-03T14:31:50;3.43;;;0.53;;
5456;SDS011;2751;49.802;9.944;2023-02-03T14:34:26;0.70;;;0.70;;
5456;SDS011;2751;49.802;9.944;2023-02-03T14:37:13;0.77;;;0.60;;
5456;SDS011;2751;49.802;9.944;2023-02-03T14:42:46;1.33;;;0.60;;
5456;SDS011;2751;49.802;9.944;2023-02-03T14:45:38;2.10;;;0.67;;
5456;SDS011;2751;49.802;9.944;2023-02-03T14:48:29;2.83;;;0.60;;
5456;SDS011;2751;49.802;9.944;2023-02-03T14:51:32;0.67;;;0.60;;
5456;SDS011;2751;49.802;9.944;2023-02-03T14:54:18;0.60;;;0.60;;
5456;SDS011;2751;49.802;9.944;2023-02-03T14:56:53;0.70;;;0.67;;
5456;SDS011;2751;49.802;9.944;2023-02-03T14:59:44;1.30;;;0.60;;
5456;SDS011;2751;49.802;9.944;2023-02-03T15:02:19;0.50;;;0.50;;
5456;SDS011;2751;49.802;9.944;2023-02-03T15:04:49;1.10;;;0.60;;
5456;SDS011;2751;49.802;9.944;2023-02-03T15:07:33;0.90;;;0.50;;
5456;SDS011;2751;49.802;9.944;2023-02-03T15:10:01;0.40;;;0.40;;
5456;SDS011;2751;49.802;9.944;2023-02-03T15:12:33;0.63;;;0.63;;
5456;SDS011;2751;49.802;9.944;2023-02-03T15:15:12;2.20;;;0.67;;
5456;SDS011;2751;49.802;9.944;2023-02-03T15:17:48;0.50;;;0.50;;
5456;SDS011;2751;49.802;9.944;2023-02-03T15:20:24;0.70;;;0.57;;
5456;SDS011;2751;49.802;9.944;2023-02-03T15:22:57;0.60;;;0.60;;
5456;SDS011;2751;49.802;9.944;2023-02-03T15:25:24;0.60;;;0.60;;
5456;SDS011;2751;49.802;9.944;2023-02-03T15:28:08;0.67;;;0.67;;
5456;SDS011;2751;49.802;9.944;2023-02-03T15:30:36;0.50;;;0.50;;
5456;SDS011;2751;49.802;9.944;2023-02-03T15:33:07;0.50;;;0.50;;
5456;SDS011;2751;49.802;9.944;2023-02-03T15:35:38;0.60;;;0.60;;
5456;SDS011;2751;49.802;9.944;2023-02-03T15:38:07;0.50;;;0.50;;
5456;SDS011;2751;49.802;9.944;2023-02-03T15:40:41;0.60;;;0.60;;
5456;SDS011;2751;49.802;9.944;2023-02-03T15:43:12;0.50;;;0.50;;
5456;SDS011;2751;49.802;9.944;2023-02-03T15:45:43;1.03;;;0.60;;
5456;SDS011;2751;49.802;9.944;2023-02-03T15:48:22;0.50;;;0.50;;
5456;SDS011;2751;49.802;9.944;2023-02-03T15:50:59;0.50;;;0.47;;
5456;SDS011;2751;49.802;9.944;2023-02-03T15:53:31;0.60;;;0.60;;
5456;SDS011;2751;49.802;9.944;2023-02-03T15:56:03;0.60;;;0.50;;
5456;SDS011;2751;49.802;9.944;2023-02-03T15:58:31;0.43;;;0.43;;
5456;SDS011;2751;49.802;9.944;2023-02-03T16:01:10;0.30;;;0.30;;
5456;SDS011;2751;49.802;9.944;2023-02-03T16:03:41;1.40;;;0.90;;
5456;SDS011;2751;49.802;9.944;2023-02-03T16:06:13;0.53;;;0.53;;
5456;SDS011;2751;49.802;9.944;2023-02-03T16:08:43;1.30;;;0.50;;
5456;SDS011;2751;49.802;9.944;2023-02-03T16:14:08;0.50;;;0.50;;